AirNav   Pilot Hours Calculator
 
 917 users online  

A51 Costin Airport
Port St. Joe, Florida, USA

GOING TO PORT ST. JOE?


FAA INFORMATION EFFECTIVE 15 JULY 2021

Location

FAA Identifier: A51
Lat/Long: 29-45-30.7570N 085-17-20.7050W
29-45.512617N 085-17.345083W
29.7585436,-85.2890847
(estimated)
Elevation: 13 ft. / 4 m (estimated)
Variation: 00W (1985)
From city: 2 miles S of PORT ST JOE, FL
Time zone: UTC -4 (UTC -5 during Standard Time)
Zip code: 32456

Airport Operations

Airport use: Open to the public
Activation date: 08/1985
Control tower: no
ARTCC: JACKSONVILLE CENTER
FSS: GAINESVILLE FLIGHT SERVICE STATION
NOTAMs facility: GNV (NOTAM-D service available)
Attendance: UNATTND
Wind indicator: yes
Segmented circle: no
Landing fee: yes

Airport Communications

CTAF: 122.9
WX ASOS at AAF (14 nm E): 119.925 (850-653-1229)

Airport Services

Parking: tiedowns

Runway Information

Runway 18/36

Dimensions: 4230 x 65 ft. / 1289 x 20 m
Surface: turf, in fair condition
SOUTH 1000 FT ROUGH, SOFT & SANDY.
Runway edge markings: RWY 18/36 MKD WITH WHITE PVC PIPES.
RUNWAY 18  RUNWAY 36
Traffic pattern: leftleft
Displaced threshold: 660 ft.1000 ft.
Obstructions: 57 ft. trees, 635 ft. from runway, 120 ft. left of centerline, 11:1 slope to clear
RWY 18 APCH RATIO 18:1 TO DSPLCD THLD DUE TO 66 FT TREE; 525 FT FROM RWY END; 90 FT RIGHT OF CNTRLN.
42 ft. trees, 1200 ft. from runway, 50 ft. right of centerline, 28:1 slope to clear

Airport Ownership and Management from official FAA records

Ownership: Privately-owned
Owner: SKYBORNE TECHNOLOGY INVEST PROP, I
115 COUNTY ROAD 381
PORT SAINT JOE, FL 32456
Phone 850-227-4933
Manager: M F LAWSON
COSTIN AIRPORT, 167 CESSNA DRIVE
PORT SAINT JOE, FL 32456
Phone (850) 588-1747
FBO

Airport Operational Statistics

Aircraft based on the field: 5
Single engine airplanes: 5
    
Aircraft operations: avg 62/week *
62% transient general aviation
37% local general aviation
2% military
* for 12-month period ending 03 April 2018

Additional Remarks

550' RADIO TWR LCTD 1 1/2 MILES NORTH OF ARPT.
NO TOUCH & GO LNDGS.
WATER-FILLED DITCH WEST OF RY.
FOR CD CTC TYNDALL APCH AT 850-283-2900 OR 850-283-3353, WHEN APCH CLSD CTC JACKSONVILLE ARTCC AT 904-845-1592.

Instrument Procedures

There are no published instrument procedures at A51.

Some nearby airports with instrument procedures:

KAAF - Apalachicola Regional Airport-Cleve Randolph Field (14 nm E)
KPAM - Tyndall Air Force Base (24 nm NW)
KECP - Northwest Florida Beaches International Airport (45 nm NW)
KTLH - Tallahassee International Airport (62 nm NE)
2J9 - Quincy Municipal Airport (63 nm NE)
 
Loc | Ops | Rwys | IFR | FBO | Links
Com | Nav | Svcs | Stats | Notes
Area around A51 (Costin Airport)
 
Road maps at: MapQuest Bing Google
 
Aerial photo
WARNING: Photo may not be current or correct
Aerial photo of A51 (Costin Airport)
Photo by Mike Patrick
Photo taken 01-Oct-2019
looking south.

Do you have a better or more recent aerial photo of Costin Airport that you would like to share? If so, please send us your photo.

 
Sectional chart

 
Airport distance calculator
Flying to Costin Airport? Find the distance to fly.

From to A51

Sunrise and sunset
Times for 01-Aug-2021
 Local
(UTC-4)
 Zulu
(UTC)
Morning civil twilight06:3610:36
Sunrise07:0211:02
Sunset20:3300:33
Evening civil twilight20:5900:59

Current date and time
Zulu (UTC)  02-Aug-2021 02:51:49
Local (UTC-4)  01-Aug-2021 22:51:49
 
METAR
KAAF 
13nm E 
020219Z AUTO 25007KT 10SM SCT021 30/27 A3000 RMK AO2 T03000267 $
KTDR 
21nm NW 
020156Z AUTO 24009KT 10SM M 31/27 A2998 RMK AO2 SLP156 T03080267 FZRANO $
KPAM 
23nm NW 
020156Z AUTO 25008KT 10SM CLR 30/25 A2999 RMK AO2 SLP159 T02970250 $
TAF
NOTAMs
Click for the latest NOTAMs
NOTAMs are issued by the DoD/FAA and will open in a separate window not controlled by AirNav.

 

 
 

Would you like to see your business listed on this page?

 If your business provides an interesting product or service to pilots, flight crews, aircraft, or users of the Costin Airport, you should consider listing it here.  To start the listing process, click on the button below
 
Add a business
 

Other Pages about Costin Airport

www.capeplantation.com
ourworld.compuserve.com/...
 
Update a link
 
Copyright © AirNav, LLC. All rights reserved. Privacy Policy  Contact